createdAt,value
2022-10-19T00:00:47.065Z,101995.06
2022-10-19T00:03:15.210Z,102001.25
2022-10-19T00:05:43.835Z,101996.75
2022-10-19T00:08:11.260Z,102001.25
2022-10-19T00:10:40.860Z,102007.56
2022-10-19T00:13:08.291Z,102001.25
2022-10-19T00:15:39.303Z,102007.56
2022-10-19T00:18:08.199Z,102004.06
2022-10-19T00:20:36.629Z,102004.78
2022-10-19T00:23:04.072Z,101999.53
2022-10-19T00:25:31.934Z,102008.44
2022-10-19T00:27:59.334Z,102009.41
2022-10-19T00:30:26.719Z,102014.13
2022-10-19T00:32:54.137Z,102020.94
2022-10-19T00:35:22.804Z,102019.25
2022-10-19T00:37:50.215Z,102018.25
2022-10-19T00:40:17.656Z,102016.69
2022-10-19T00:42:45.060Z,102004.41
2022-10-19T00:45:14.511Z,102017.75
2022-10-19T00:47:42.398Z,102010.63
2022-10-19T00:50:10.152Z,102014.38
2022-10-19T00:52:38.887Z,102000.06
2022-10-19T00:55:07.511Z,102005.16
2022-10-19T00:57:34.920Z,102004.56
2022-10-19T01:00:02.351Z,102012.41
2022-10-19T01:02:29.744Z,102012.41
2022-10-19T01:04:57.144Z,102006.97
2022-10-19T01:07:24.536Z,102013.28
2022-10-19T01:09:53.233Z,102014.13
2022-10-19T01:12:49.715Z,102003.44
2022-10-19T01:15:22.680Z,102008.19
2022-10-19T01:17:56.708Z,102003.44
2022-10-19T01:20:33.348Z,101994.81
2022-10-19T01:23:22.219Z,102002.00
2022-10-19T01:25:55.107Z,102001.88
2022-10-19T01:28:33.765Z,101989.38
2022-10-19T01:31:03.027Z,101984.03
2022-10-19T01:33:35.694Z,101982.53
2022-10-19T01:36:07.148Z,101977.09
2022-10-19T01:38:37.003Z,101986.94
2022-10-19T01:41:10.900Z,101986.94
2022-10-19T01:43:40.805Z,101982.31
2022-10-19T01:46:11.848Z,101980.03
2022-10-19T01:48:40.468Z,101976.47
2022-10-19T01:51:09.049Z,101980.75
2022-10-19T01:53:40.125Z,101978.78
2022-10-19T01:56:07.663Z,101981.59
2022-10-19T01:58:36.420Z,101973.81
2022-10-19T02:01:05.375Z,101974.53
2022-10-19T02:03:34.197Z,101971.84
2022-10-19T02:06:01.617Z,101979.16
2022-10-19T02:08:29.924Z,101975.41
2022-10-19T02:10:57.444Z,101967.50
2022-10-19T02:13:24.836Z,101967.50
2022-10-19T02:15:53.427Z,101971.00
2022-10-19T02:18:22.764Z,101970.16
2022-10-19T02:20:51.435Z,101966.50
2022-10-19T02:23:20.388Z,101963.13
2022-10-19T02:25:47.789Z,101964.94
2022-10-19T02:28:15.225Z,101961.44
2022-10-19T02:30:42.992Z,101962.38
2022-10-19T02:33:12.258Z,101958.88
2022-10-19T02:35:39.662Z,101964.81
2022-10-19T02:38:08.341Z,101964.94
2022-10-19T02:40:38.897Z,101971.25
2022-10-19T02:43:07.444Z,101976.59
2022-10-19T02:45:37.528Z,101968.47
2022-10-19T02:48:06.272Z,101966.78
2022-10-19T02:50:33.666Z,101974.06
2022-10-19T02:53:01.066Z,101965.06
2022-10-19T02:55:30.272Z,101965.91
2022-10-19T02:57:58.114Z,101963.38
2022-10-19T03:00:25.495Z,101967.00
2022-10-19T03:02:52.884Z,101962.38
2022-10-19T03:05:20.324Z,101965.28
2022-10-19T03:07:47.804Z,101960.81
2022-10-19T03:10:15.261Z,101959.97
2022-10-19T03:12:43.935Z,101962.63
2022-10-19T03:15:11.861Z,101963.63
2022-10-19T03:17:39.247Z,101966.28
2022-10-19T03:20:07.729Z,101966.16
2022-10-19T03:22:35.126Z,101965.91
2022-10-19T03:25:02.517Z,101979.41
2022-10-19T03:27:29.900Z,101978.41
2022-10-19T03:29:58.621Z,101978.53
2022-10-19T03:32:26.008Z,101980.38
2022-10-19T03:34:53.414Z,101972.47
2022-10-19T03:37:20.827Z,101991.28
2022-10-19T03:39:48.213Z,101989.47
2022-10-19T03:42:15.595Z,101985.94
2022-10-19T03:44:42.996Z,101993.13
2022-10-19T03:47:11.673Z,101987.88
2022-10-19T03:49:40.349Z,101998.47
2022-10-19T03:52:09.900Z,102002.19
2022-10-19T03:54:37.282Z,102004.66
2022-10-19T03:57:04.682Z,102002.69
2022-10-19T03:59:32.087Z,102002.97
2022-10-19T04:01:59.470Z,102002.09
2022-10-19T04:04:28.242Z,102002.97
2022-10-19T04:06:55.637Z,102004.84
2022-10-19T04:09:23.152Z,102000.38
2022-10-19T04:11:50.634Z,102012.78
2022-10-19T04:14:27.027Z,102016.31
2022-10-19T04:17:00.363Z,102011.91
2022-10-19T04:19:29.087Z,102018.13
2022-10-19T04:21:56.531Z,102019.06
2022-10-19T04:24:23.993Z,102010.97
2022-10-19T04:26:52.077Z,102026.22
2022-10-19T04:29:21.255Z,102018.72
2022-10-19T04:31:49.869Z,102007.44
2022-10-19T04:34:17.275Z,102017.25
2022-10-19T04:36:46.020Z,102015.44
2022-10-19T04:39:13.817Z,102013.84
2022-10-19T04:41:41.201Z,102017.25
2022-10-19T04:44:08.721Z,102014.81
2022-10-19T04:46:37.300Z,102012.88
2022-10-19T04:49:06.622Z,102011.19
2022-10-19T04:51:34.084Z,102010.19
2022-10-19T04:54:02.919Z,102019.00
2022-10-19T04:56:35.037Z,102020.78
2022-10-19T04:59:02.458Z,102030.72
2022-10-19T05:01:31.684Z,102032.44
2022-10-19T05:03:59.802Z,102023.66
2022-10-19T05:06:27.415Z,102030.84
2022-10-19T05:08:54.820Z,102027.31
2022-10-19T05:11:23.504Z,102031.69
2022-10-19T05:13:50.972Z,102033.50
2022-10-19T05:16:19.323Z,102037.91
2022-10-19T05:18:48.349Z,102032.78
2022-10-19T05:21:15.759Z,102039.84
2022-10-19T05:23:43.236Z,102046.13
2022-10-19T05:26:11.513Z,102051.47
2022-10-19T05:28:40.324Z,102045.19
2022-10-19T05:31:09.135Z,102054.16
2022-10-19T05:33:36.532Z,102050.63
2022-10-19T05:36:15.028Z,102059.16
2022-10-19T05:38:42.629Z,102055.88
2022-10-19T05:41:10.087Z,102061.06
2022-10-19T05:43:37.544Z,102061.94
2022-10-19T05:46:07.308Z,102063.88
2022-10-19T05:48:34.965Z,102067.50
2022-10-19T05:51:02.463Z,102059.50
2022-10-19T05:53:29.973Z,102058.78
2022-10-19T05:55:57.467Z,102055.38
2022-10-19T05:58:24.895Z,102066.91
2022-10-19T06:00:53.473Z,102063.50
2022-10-19T06:03:22.775Z,102069.47
2022-10-19T06:05:50.212Z,102060.44
2022-10-19T06:08:17.605Z,102066.41
2022-10-19T06:10:45.057Z,102069.84
2022-10-19T06:13:12.591Z,102060.94
2022-10-19T06:15:40.157Z,102065.34
2022-10-19T06:18:09.405Z,102060.94
2022-10-19T06:20:38.296Z,102074.56
2022-10-19T06:23:05.711Z,102072.97
2022-10-19T06:25:33.150Z,102073.94
2022-10-19T06:28:00.710Z,102074.78
2022-10-19T06:30:28.284Z,102074.06
2022-10-19T06:32:55.964Z,102080.38
2022-10-19T06:35:23.483Z,102084.50
2022-10-19T06:37:52.273Z,102085.47
2022-10-19T06:40:19.760Z,102082.94
2022-10-19T06:42:47.198Z,102085.59
2022-10-19T06:45:14.635Z,102082.09
2022-10-19T06:47:42.157Z,102091.16
2022-10-19T06:50:10.099Z,102090.22
2022-10-19T06:52:37.562Z,102101.75
2022-10-19T06:55:07.515Z,102104.53
2022-10-19T06:57:35.218Z,102102.06
2022-10-19T07:00:03.227Z,102105.84
2022-10-19T07:02:30.658Z,102099.63
2022-10-19T07:04:58.107Z,102107.78
2022-10-19T07:07:25.612Z,102104.13
2022-10-19T07:09:53.474Z,102101.81
2022-10-19T07:12:22.151Z,102105.34
2022-10-19T07:14:49.547Z,102116.25
2022-10-19T07:17:16.926Z,102107.28
2022-10-19T07:19:44.405Z,102114.41
2022-10-19T07:22:15.529Z,102111.88
2022-10-19T07:24:46.485Z,102105.56
2022-10-19T07:27:14.212Z,102109.81
2022-10-19T07:29:42.936Z,102122.31
2022-10-19T07:32:10.409Z,102127.44
2022-10-19T07:34:37.809Z,102129.28
2022-10-19T07:37:05.200Z,102126.81
2022-10-19T07:39:32.762Z,102123.81
2022-10-19T07:42:00.196Z,102126.50
2022-10-19T07:44:27.809Z,102128.41
2022-10-19T07:46:56.579Z,102128.41
2022-10-19T07:49:24.030Z,102127.56
2022-10-19T07:51:53.983Z,102129.38
2022-10-19T07:54:22.535Z,102134.72
2022-10-19T07:56:50.006Z,102132.16
2022-10-19T07:59:17.432Z,102138.34
2022-10-19T08:01:45.150Z,102137.63
2022-10-19T08:07:01.276Z,102146.25
2022-10-19T08:09:51.417Z,102146.13
2022-10-19T08:12:16.138Z,102145.41
2022-10-19T08:14:43.633Z,102146.13
2022-10-19T08:17:11.532Z,102147.19
2022-10-19T08:19:43.335Z,102145.84
2022-10-19T08:22:11.099Z,102147.69
2022-10-19T08:24:38.515Z,102146.84
2022-10-19T08:27:06.000Z,102143.28
2022-10-19T08:29:33.464Z,102149.50
2022-10-19T08:32:00.844Z,102148.53
2022-10-19T08:34:28.319Z,102150.56
2022-10-19T08:36:56.987Z,102156.25
2022-10-19T08:39:24.433Z,102157.00
2022-10-19T08:41:56.904Z,102158.91
2022-10-19T08:44:31.804Z,102160.84
2022-10-19T08:47:02.741Z,102158.06
2022-10-19T08:49:31.459Z,102160.63
2022-10-19T08:52:01.412Z,102159.41
2022-10-19T08:54:33.289Z,102170.22
2022-10-19T08:57:04.103Z,102155.97
2022-10-19T08:59:33.546Z,102161.31
2022-10-19T09:02:02.231Z,102168.13
2022-10-19T09:04:30.236Z,102161.47
2022-10-19T09:07:24.488Z,102165.56
2022-10-19T09:09:53.158Z,102166.66
2022-10-19T09:12:22.067Z,102167.50
2022-10-19T09:14:54.351Z,102180.13
2022-10-19T09:17:21.768Z,102170.38
2022-10-19T09:19:49.221Z,102172.22
2022-10-19T09:22:18.081Z,102176.94
2022-10-19T09:24:48.973Z,102180.44
2022-10-19T09:27:18.570Z,102180.66
2022-10-19T09:29:48.980Z,102183.22
2022-10-19T09:32:19.447Z,102184.81
2022-10-19T09:34:47.979Z,102188.22
2022-10-19T09:37:23.243Z,102192.84
2022-10-19T09:39:55.627Z,102188.56
2022-10-19T09:42:24.801Z,102188.44
2022-10-19T09:44:52.710Z,102196.34
2022-10-19T09:47:29.388Z,102201.91
2022-10-19T09:50:07.858Z,102197.41
2022-10-19T09:52:39.171Z,102193.91
2022-10-19T09:55:11.688Z,102204.47
2022-10-19T09:57:42.785Z,102203.72
2022-10-19T10:00:18.313Z,102202.53
2022-10-19T10:02:49.715Z,102203.63
2022-10-19T10:05:17.324Z,102195.91
2022-10-19T10:07:44.734Z,102200.69
2022-10-19T10:10:20.830Z,102199.25
2022-10-19T10:12:48.277Z,102204.59
2022-10-19T10:15:16.996Z,102191.13
2022-10-19T10:17:45.889Z,102191.53
2022-10-19T10:20:24.269Z,102198.19
2022-10-19T10:22:57.458Z,102189.19
2022-10-19T10:25:30.669Z,102198.09
2022-10-19T10:28:00.405Z,102194.94
2022-10-19T10:30:28.114Z,102195.78
2022-10-19T10:33:00.357Z,102187.25
2022-10-19T10:35:36.241Z,102199.03
2022-10-19T10:38:12.602Z,102195.53
2022-10-19T10:40:41.966Z,102201.19
2022-10-19T10:43:10.400Z,102205.81
2022-10-19T10:45:39.232Z,102208.47
2022-10-19T10:48:24.789Z,102205.81
2022-10-19T10:50:52.931Z,102205.91
2022-10-19T10:53:33.225Z,102198.75
2022-10-19T10:56:01.908Z,102199.47
2022-10-19T10:58:35.615Z,102202.66
2022-10-19T11:01:16.580Z,102204.50
2022-10-19T11:03:47.099Z,102198.34
2022-10-19T11:06:14.666Z,102191.09
2022-10-19T11:08:45.355Z,102200.28
2022-10-19T11:11:15.467Z,102201.53
2022-10-19T11:13:44.647Z,102195.84
2022-10-19T11:16:13.318Z,102202.50
2022-10-19T11:18:42.379Z,102201.50
2022-10-19T11:21:11.117Z,102201.72
2022-10-19T11:23:43.455Z,102197.31
2022-10-19T11:26:30.622Z,102202.91
2022-10-19T11:29:06.871Z,102208.25
2022-10-19T11:31:39.417Z,102196.66
2022-10-19T11:34:09.040Z,102197.63
2022-10-19T11:36:43.520Z,102201.53
2022-10-19T11:39:22.118Z,102186.13
2022-10-19T11:41:55.626Z,102176.94
2022-10-19T11:44:27.642Z,102175.69
2022-10-19T11:47:01.595Z,102183.19
2022-10-19T11:49:36.035Z,102170.91
2022-10-19T11:52:06.878Z,102173.78
2022-10-19T11:54:43.810Z,102173.84
2022-10-19T11:57:13.876Z,102173.63
2022-10-19T11:59:51.136Z,102175.94
2022-10-19T12:02:32.457Z,102171.91
2022-10-19T12:05:00.176Z,102171.41
2022-10-19T12:07:37.747Z,102171.63
2022-10-19T12:10:11.107Z,102174.31
2022-10-19T12:12:40.437Z,102179.31
2022-10-19T12:15:19.577Z,102182.31
2022-10-19T12:17:48.991Z,102180.84
2022-10-19T12:20:20.775Z,102180.84
2022-10-19T12:22:48.490Z,102174.56
2022-10-19T12:25:15.982Z,102182.44
2022-10-19T12:27:46.606Z,102170.16
2022-10-19T12:30:15.394Z,102173.78
2022-10-19T12:32:53.403Z,102176.47
2022-10-19T12:35:28.500Z,102175.28
2022-10-19T12:37:57.988Z,102171.88
2022-10-19T12:40:28.607Z,102169.31
2022-10-19T12:43:01.183Z,102170.41
2022-10-19T12:45:30.273Z,102165.78
2022-10-19T12:48:20.657Z,102164.00
2022-10-19T12:51:05.607Z,102164.59
2022-10-19T12:53:36.023Z,102162.56
2022-10-19T12:56:03.976Z,102160.09
2022-10-19T12:58:35.417Z,102157.56
2022-10-19T13:01:04.403Z,102158.53
2022-10-19T13:03:32.789Z,102156.72
2022-10-19T13:06:00.889Z,102154.03
2022-10-19T13:08:29.432Z,102151.16
2022-10-19T13:11:07.412Z,102156.47
2022-10-19T13:13:57.003Z,102156.88
2022-10-19T13:16:33.994Z,102146.44
2022-10-19T13:19:05.153Z,102146.25
2022-10-19T13:21:52.820Z,102150.41
2022-10-19T13:24:34.938Z,102140.69
2022-10-19T13:27:28.258Z,102135.09
2022-10-19T13:29:57.043Z,102134.13
2022-10-19T13:32:37.427Z,102137.50
2022-10-19T13:35:36.049Z,102128.53
2022-10-19T13:38:26.290Z,102128.53
2022-10-19T13:41:02.282Z,102130.88
2022-10-19T13:43:30.906Z,102128.31
2022-10-19T13:46:04.130Z,102135.34
2022-10-19T13:48:36.980Z,102126.00
2022-10-19T13:51:06.805Z,102115.69
2022-10-19T13:53:39.122Z,102116.41
2022-10-19T13:56:19.230Z,102114.81
2022-10-19T13:59:13.295Z,102122.69
2022-10-19T14:01:48.137Z,102125.38
2022-10-19T14:04:20.509Z,102126.47
2022-10-19T14:06:48.989Z,102125.59
2022-10-19T14:09:29.413Z,102118.34
2022-10-19T14:12:04.284Z,102119.06
2022-10-19T14:14:31.716Z,102115.41
2022-10-19T14:17:03.918Z,102123.44
2022-10-19T14:19:32.623Z,102113.47
2022-10-19T14:22:01.167Z,102113.47
2022-10-19T14:24:30.770Z,102114.47
2022-10-19T14:26:58.458Z,102114.47
2022-10-19T14:29:25.853Z,102113.47
2022-10-19T14:31:53.389Z,102113.47
2022-10-19T14:34:22.060Z,102118.69
2022-10-19T14:36:49.924Z,102118.69
2022-10-19T14:39:25.147Z,102118.69
2022-10-19T14:41:54.467Z,102117.03
2022-10-19T14:44:37.332Z,102104.72
2022-10-19T14:47:08.054Z,102094.75
2022-10-19T14:49:36.745Z,102103.78
2022-10-19T14:52:04.213Z,102104.63
2022-10-19T14:54:33.044Z,102099.38
2022-10-19T14:57:02.002Z,102102.06
2022-10-19T14:59:30.945Z,102101.09
2022-10-19T15:01:59.399Z,102095.03
2022-10-19T15:04:29.030Z,102096.72
2022-10-19T15:06:57.741Z,102103.03
2022-10-19T15:09:37.072Z,102087.97
2022-10-19T15:12:06.683Z,102094.53
2022-10-19T15:14:34.114Z,102096.13
2022-10-19T15:17:01.838Z,102100.59
2022-10-19T15:19:30.092Z,102087.75
2022-10-19T15:22:15.525Z,102090.63
2022-10-19T15:24:56.399Z,102094.31
2022-10-19T15:27:29.173Z,102100.59
2022-10-19T15:29:56.914Z,102093.66
2022-10-19T15:32:25.500Z,102103.50
2022-10-19T15:34:52.896Z,102104.50
2022-10-19T15:37:22.765Z,102096.66
2022-10-19T15:39:50.343Z,102107.34
2022-10-19T15:42:36.708Z,102107.59
2022-10-19T15:45:04.623Z,102101.50
2022-10-19T15:47:32.311Z,102111.22
2022-10-19T15:50:00.939Z,102109.53
2022-10-19T15:52:30.086Z,102108.41
2022-10-19T15:54:58.414Z,102116.66
2022-10-19T15:57:28.694Z,102113.88
2022-10-19T15:59:56.567Z,102117.66
2022-10-19T16:02:25.022Z,102117.16
2022-10-19T16:04:53.106Z,102115.31
2022-10-19T16:07:22.906Z,102114.38
2022-10-19T16:09:51.592Z,102113.25
2022-10-19T16:12:19.028Z,102121.78
2022-10-19T16:14:46.485Z,102119.22
2022-10-19T16:17:14.075Z,102119.84
2022-10-19T16:19:41.469Z,102120.94
2022-10-19T16:22:08.869Z,102115.59
2022-10-19T16:24:36.260Z,102121.91
2022-10-19T16:27:05.168Z,102123.72
2022-10-19T16:29:32.632Z,102129.91
2022-10-19T16:32:00.108Z,102127.25
2022-10-19T16:34:27.522Z,102129.06
2022-10-19T16:36:54.977Z,102131.72
2022-10-19T16:39:25.326Z,102130.16
2022-10-19T16:41:52.781Z,102134.63
2022-10-19T16:44:22.579Z,102134.63
2022-10-19T16:46:50.045Z,102135.72
2022-10-19T16:49:17.472Z,102129.66
2022-10-19T16:51:44.881Z,102142.75
2022-10-19T16:54:12.441Z,102140.19
2022-10-19T16:56:44.485Z,102141.91
2022-10-19T16:59:12.368Z,102148.97
2022-10-19T17:01:41.182Z,102150.88
2022-10-19T17:04:08.625Z,102148.34
2022-10-19T17:06:36.027Z,102150.78
2022-10-19T17:11:51.164Z,102157.31
2022-10-19T17:14:18.561Z,102159.88
2022-10-19T17:16:47.278Z,102158.06
2022-10-19T17:19:14.653Z,102154.44
2022-10-19T17:21:42.331Z,102170.47
2022-10-19T17:24:18.463Z,102168.84
2022-10-19T17:26:49.065Z,102169.72
2022-10-19T17:29:16.468Z,102160.00
2022-10-19T17:31:43.873Z,102165.44
2022-10-19T17:34:12.578Z,102165.56
2022-10-19T17:39:14.463Z,102171.75
2022-10-19T17:41:41.850Z,102166.66
2022-10-19T17:44:09.270Z,102176.13
2022-10-19T17:46:36.705Z,102169.94
2022-10-19T17:49:04.128Z,102169.94
2022-10-19T17:51:34.517Z,102175.50
2022-10-19T17:54:02.644Z,102176.25
2022-10-19T17:56:30.064Z,102174.56
2022-10-19T17:58:57.717Z,102177.34
2022-10-19T18:01:25.114Z,102179.13
2022-10-19T18:03:52.499Z,102182.44
2022-10-19T18:06:20.706Z,102183.19
2022-10-19T18:08:50.390Z,102184.03
2022-10-19T18:11:19.138Z,102181.47
2022-10-19T18:13:46.653Z,102186.81
2022-10-19T18:16:14.946Z,102181.59
2022-10-19T18:18:43.129Z,102175.50
2022-10-19T18:21:11.429Z,102176.34
2022-10-19T18:23:38.883Z,102179.13
2022-10-19T18:26:08.575Z,102173.06
2022-10-19T18:28:36.085Z,102172.09
2022-10-19T18:31:07.391Z,102174.88
2022-10-19T18:33:34.802Z,102178.63
2022-10-19T18:36:02.199Z,102183.00
2022-10-19T18:38:29.734Z,102183.97
2022-10-19T18:40:57.233Z,102184.84
2022-10-19T18:43:26.016Z,102183.97
2022-10-19T18:45:53.504Z,102192.97
2022-10-19T18:48:20.947Z,102185.78
2022-10-19T18:50:48.421Z,102193.91
2022-10-19T18:53:15.887Z,102193.06
2022-10-19T18:55:43.332Z,102191.25
2022-10-19T18:58:10.950Z,102193.06
2022-10-19T19:00:43.430Z,102181.56
2022-10-19T19:03:13.085Z,102186.13
2022-10-19T19:05:40.478Z,102183.44
2022-10-19T19:08:07.883Z,102186.13
2022-10-19T19:10:35.354Z,102183.44
2022-10-19T19:13:02.769Z,102186.22
2022-10-19T19:15:30.184Z,102190.72
2022-10-19T19:17:58.875Z,102182.63
2022-10-19T19:20:26.300Z,102183.56
2022-10-19T19:22:53.716Z,102180.91
2022-10-19T19:25:21.120Z,102187.09
2022-10-19T19:27:48.526Z,102181.78
2022-10-19T19:30:15.962Z,102184.56
2022-10-19T19:32:43.382Z,102182.00
2022-10-19T19:35:12.093Z,102177.59
2022-10-19T19:37:39.476Z,102186.47
2022-10-19T19:40:08.003Z,102187.44
2022-10-19T19:42:35.396Z,102181.25
2022-10-19T19:47:30.020Z,102180.28
2022-10-19T19:52:26.011Z,102175.19
2022-10-19T19:54:53.427Z,102178.47
2022-10-19T19:57:20.971Z,102178.59
2022-10-19T19:59:48.409Z,102172.50
2022-10-19T20:04:44.041Z,102179.75
2022-10-19T20:07:11.488Z,102186.06
2022-10-19T20:09:40.177Z,102178.81
2022-10-19T20:12:07.574Z,102174.56
2022-10-19T20:14:35.023Z,102178.81
2022-10-19T20:17:02.430Z,102182.44
2022-10-19T20:19:29.816Z,102190.44
2022-10-19T20:21:59.058Z,102191.41
2022-10-19T20:24:26.446Z,102188.75
2022-10-19T20:26:55.776Z,102195.91
2022-10-19T20:29:23.224Z,102187.91
2022-10-19T20:31:50.624Z,102182.69
2022-10-19T20:34:26.717Z,102189.69
2022-10-19T20:36:54.288Z,102197.59
2022-10-19T20:39:21.875Z,102200.91
2022-10-19T20:41:49.274Z,102196.53
2022-10-19T20:46:45.300Z,102197.28
2022-10-19T20:49:12.858Z,102195.66
2022-10-19T20:51:40.248Z,102191.31
2022-10-19T20:54:08.364Z,102197.50
2022-10-19T20:59:04.436Z,102206.34
2022-10-19T21:01:33.738Z,102209.88
2022-10-19T21:04:03.193Z,102210.84
2022-10-19T21:06:31.938Z,102211.69
2022-10-19T21:08:59.486Z,102206.47
2022-10-19T21:11:27.682Z,102213.72
2022-10-19T21:13:55.614Z,102212.03
2022-10-19T21:16:23.786Z,102209.38
2022-10-19T21:18:52.467Z,102212.25
2022-10-19T21:21:21.174Z,102216.63
2022-10-19T21:23:49.469Z,102207.88
2022-10-19T21:26:17.141Z,102207.88
2022-10-19T21:28:46.596Z,102206.06
2022-10-19T21:31:14.001Z,102207.66
2022-10-19T21:33:41.447Z,102213.09
2022-10-19T21:36:10.375Z,102201.69
2022-10-19T21:38:37.804Z,102199.88
2022-10-19T21:41:09.408Z,102197.94
2022-10-19T21:43:36.874Z,102195.25
2022-10-19T21:46:04.479Z,102198.91
2022-10-19T21:48:31.969Z,102192.72
2022-10-19T21:50:59.402Z,102191.84
2022-10-19T21:53:28.083Z,102188.34
2022-10-19T21:55:55.478Z,102189.19
2022-10-19T21:58:22.913Z,102191.84
2022-10-19T22:00:50.361Z,102193.56
2022-10-19T22:03:18.522Z,102183.13
2022-10-19T22:05:50.832Z,102176.06
2022-10-19T22:08:19.471Z,102186.50
2022-10-19T22:10:48.256Z,102186.50
2022-10-19T22:13:15.635Z,102174.25
2022-10-19T22:15:43.152Z,102176.94
2022-10-19T22:18:10.537Z,102174.38
2022-10-19T22:20:38.132Z,102176.19
2022-10-19T22:23:05.733Z,102173.53
2022-10-19T22:25:33.167Z,102171.59
2022-10-19T22:28:01.992Z,102174.25
2022-10-19T22:30:29.418Z,102172.44
2022-10-19T22:32:56.870Z,102162.72
2022-10-19T22:35:24.256Z,102159.81
2022-10-19T22:37:51.646Z,102158.03
2022-10-19T22:40:19.068Z,102161.66
2022-10-19T22:42:46.526Z,102155.47
2022-10-19T22:45:15.533Z,102158.34
2022-10-19T22:47:43.018Z,102157.38
2022-10-19T22:50:11.708Z,102152.78
2022-10-19T22:52:39.498Z,102153.63
2022-10-19T22:55:07.382Z,102155.34
2022-10-19T22:57:34.852Z,102150.84
2022-10-19T23:00:02.335Z,102145.63
2022-10-19T23:02:31.464Z,102146.47
2022-10-19T23:04:58.962Z,102145.53
2022-10-19T23:07:26.442Z,102140.06
2022-10-19T23:09:53.908Z,102135.78
2022-10-19T23:12:21.546Z,102137.72
2022-10-19T23:14:49.047Z,102134.09
2022-10-19T23:17:16.516Z,102136.78
2022-10-19T23:19:46.108Z,102142.00
2022-10-19T23:22:13.524Z,102126.09
2022-10-19T23:24:40.992Z,102131.19
2022-10-19T23:27:08.475Z,102131.19
2022-10-19T23:29:35.958Z,102133.84
2022-10-19T23:32:03.448Z,102134.00
2022-10-19T23:34:30.990Z,102140.28
2022-10-19T23:36:59.849Z,102144.78
2022-10-19T23:39:27.268Z,102146.47
2022-10-19T23:41:54.670Z,102149.16
2022-10-19T23:44:22.051Z,102147.19
2022-10-19T23:46:50.280Z,102148.19
2022-10-19T23:49:17.672Z,102155.47
2022-10-19T23:51:45.047Z,102153.63
2022-10-19T23:54:15.008Z,102149.16
2022-10-19T23:56:42.603Z,102144.69
2022-10-19T23:59:10.352Z,102148.19
